createdAt,value
2023-05-19T00:00:34.776Z,3.52
2023-05-19T00:01:34.420Z,3.43
2023-05-19T00:02:34.537Z,3.45
2023-05-19T00:03:34.396Z,3.51
2023-05-19T00:04:34.295Z,3.59
2023-05-19T00:05:34.991Z,3.6
2023-05-19T00:06:34.582Z,3.99
2023-05-19T00:07:36.940Z,3.85
2023-05-19T00:08:34.663Z,3.6
2023-05-19T00:09:34.526Z,3.57
2023-05-19T00:10:34.491Z,3.55
2023-05-19T00:11:34.471Z,3.66
2023-05-19T00:12:34.850Z,3.71
2023-05-19T00:13:34.456Z,3.84
2023-05-19T00:14:34.683Z,3.7
2023-05-19T00:15:34.648Z,3.61
2023-05-19T00:16:35.085Z,3.59
2023-05-19T00:17:34.201Z,3.58
2023-05-19T00:18:34.174Z,3.47
2023-05-19T00:19:34.138Z,3.52
2023-05-19T00:20:34.601Z,3.58
2023-05-19T00:21:34.218Z,3.51
2023-05-19T00:22:34.217Z,3.59
2023-05-19T00:23:34.229Z,3.55
2023-05-19T00:24:34.347Z,3.49
2023-05-19T00:25:34.295Z,3.65
2023-05-19T00:26:34.302Z,3.44
2023-05-19T00:27:34.535Z,3.48
2023-05-19T00:28:34.340Z,3.37
2023-05-19T00:29:34.360Z,3.37
2023-05-19T00:30:34.472Z,3.55
2023-05-19T00:31:34.644Z,3.59
2023-05-19T00:32:34.666Z,3.49
2023-05-19T00:33:34.468Z,3.52
2023-05-19T00:34:34.412Z,3.53
2023-05-19T00:35:34.435Z,3.52
2023-05-19T00:36:34.446Z,3.45
2023-05-19T00:37:34.466Z,3.5
2023-05-19T00:38:35.347Z,3.48
2023-05-19T00:39:34.487Z,3.39
2023-05-19T00:40:35.264Z,3.41
2023-05-19T00:41:34.587Z,3.29
2023-05-19T00:42:34.580Z,3.34
2023-05-19T00:43:34.618Z,3.44
2023-05-19T00:44:37.650Z,3.49
2023-05-19T00:45:35.079Z,3.46
2023-05-19T00:46:34.707Z,3.52
2023-05-19T00:47:34.845Z,3.55
2023-05-19T00:48:34.635Z,3.5
2023-05-19T00:49:35.028Z,3.54
2023-05-19T00:50:35.109Z,3.4
2023-05-19T00:51:35.568Z,3.41
2023-05-19T00:52:34.786Z,3.52
2023-05-19T00:53:35.156Z,3.47
2023-05-19T00:54:34.974Z,3.45
2023-05-19T00:55:36.926Z,3.4
2023-05-19T00:56:34.982Z,3.28
2023-05-19T00:57:35.029Z,3.32
2023-05-19T00:58:35.796Z,3.23
2023-05-19T00:59:34.999Z,3.25
2023-05-19T01:00:35.321Z,3.23
2023-05-19T01:01:34.929Z,3.28
2023-05-19T01:02:35.137Z,3.21
2023-05-19T01:03:35.901Z,3.16
2023-05-19T01:04:36.371Z,3.17
2023-05-19T01:05:35.392Z,3.17
2023-05-19T01:06:35.995Z,3.04
2023-05-19T01:07:35.037Z,3.12
2023-05-19T01:08:35.882Z,3.14
2023-05-19T01:09:35.164Z,3.1
2023-05-19T01:10:34.990Z,3.16
2023-05-19T01:11:35.004Z,3.16
2023-05-19T01:12:35.718Z,3.19
2023-05-19T01:13:36.121Z,3.09
2023-05-19T01:14:35.436Z,3
2023-05-19T01:15:40.168Z,3.02
2023-05-19T01:16:45.994Z,3.03
2023-05-19T01:20:49.481Z,3.06
2023-05-19T01:25:07.420Z,3.1
2023-05-19T01:29:05.549Z,3.1
2023-05-19T01:31:01.894Z,3.3
2023-05-19T01:32:04.517Z,3.27
2023-05-19T01:33:04.191Z,3.31
2023-05-19T01:34:02.719Z,3.28
2023-05-19T01:35:03.826Z,3.2
2023-05-19T01:36:03.558Z,3.2
2023-05-19T01:37:02.780Z,3.15
2023-05-19T01:38:03.310Z,3.11
2023-05-19T01:39:02.199Z,3.07
2023-05-19T01:40:02.179Z,3.03
2023-05-19T01:41:03.033Z,3.01
2023-05-19T01:42:03.561Z,3.11
2023-05-19T01:43:02.110Z,3.19
2023-05-19T01:44:02.175Z,3.13
2023-05-19T01:45:02.242Z,3.08
2023-05-19T01:46:02.969Z,2.98
2023-05-19T01:47:02.471Z,2.85
2023-05-19T01:48:03.215Z,2.92
2023-05-19T01:49:02.548Z,2.94
2023-05-19T01:50:02.893Z,2.97
2023-05-19T01:51:02.283Z,3
2023-05-19T01:52:02.277Z,3.31
2023-05-19T01:53:02.117Z,3.22
2023-05-19T01:54:02.381Z,3.17
2023-05-19T01:55:02.137Z,3.12
2023-05-19T01:56:02.415Z,3.17
2023-05-19T01:57:08.439Z,3.19
2023-05-19T02:05:27.641Z,3.05
2023-05-19T02:07:35.754Z,3.05
2023-05-19T02:10:40.069Z,3.12
2023-05-19T02:11:39.793Z,3.01
2023-05-19T02:12:39.102Z,3.27
2023-05-19T02:13:43.172Z,3.36
2023-05-19T02:14:47.889Z,3.4
2023-05-19T02:15:45.161Z,3.42
2023-05-19T02:16:45.645Z,3.45
2023-05-19T02:17:45.284Z,3.39
2023-05-19T02:18:45.830Z,3.3
2023-05-19T02:19:44.335Z,3.5
2023-05-19T02:20:44.189Z,3.41
2023-05-19T02:21:44.195Z,3.35
2023-05-19T02:22:44.959Z,3.4
2023-05-19T02:23:44.225Z,3.45
2023-05-19T02:24:44.268Z,3.33
2023-05-19T02:25:44.484Z,3.33
2023-05-19T02:26:44.299Z,3.41
2023-05-19T02:27:44.255Z,3.51
2023-05-19T02:28:44.344Z,3.48
2023-05-19T02:29:44.322Z,3.55
2023-05-19T02:30:44.393Z,3.75
2023-05-19T02:31:44.389Z,3.89
2023-05-19T02:32:44.389Z,3.89
2023-05-19T02:33:44.627Z,3.86
2023-05-19T02:34:44.353Z,3.78
2023-05-19T02:35:44.377Z,3.87
2023-05-19T02:36:44.397Z,3.92
2023-05-19T02:37:44.422Z,4.06
2023-05-19T02:38:44.487Z,4.11
2023-05-19T02:39:44.691Z,4.13
2023-05-19T02:40:44.474Z,4.16
2023-05-19T02:41:44.473Z,4.15
2023-05-19T02:42:44.477Z,4.19
2023-05-19T02:43:44.540Z,4.18
2023-05-19T02:44:44.563Z,4.21
2023-05-19T02:45:45.029Z,4.31
2023-05-19T02:46:44.555Z,4.32
2023-05-19T02:47:44.655Z,4.33
2023-05-19T02:48:44.606Z,4.26
2023-05-19T02:49:44.574Z,4.27
2023-05-19T02:50:44.559Z,4.28
2023-05-19T02:51:44.619Z,4.27
2023-05-19T02:52:44.576Z,4.3
2023-05-19T02:53:44.638Z,4.2
2023-05-19T02:54:44.671Z,4.29
2023-05-19T02:55:44.635Z,4.3
2023-05-19T02:56:44.683Z,4.37
2023-05-19T02:57:44.923Z,4.31
2023-05-19T02:58:44.730Z,4.31
2023-05-19T02:59:44.754Z,4.34
2023-05-19T03:00:44.742Z,4.39
2023-05-19T03:01:44.778Z,4.33
2023-05-19T03:02:44.893Z,4.44
2023-05-19T03:03:44.874Z,4.37
2023-05-19T03:04:45.018Z,4.46
2023-05-19T03:05:44.825Z,4.51
2023-05-19T03:06:44.817Z,4.48
2023-05-19T03:07:44.857Z,4.52
2023-05-19T03:08:44.850Z,4.51
2023-05-19T03:09:44.864Z,4.54
2023-05-19T03:10:45.682Z,4.51
2023-05-19T03:11:45.093Z,4.49
2023-05-19T03:12:44.881Z,4.56
2023-05-19T03:13:44.907Z,4.57
2023-05-19T03:14:45.077Z,4.6
2023-05-19T03:15:44.921Z,4.64
2023-05-19T03:16:45.069Z,4.66
2023-05-19T03:17:45.057Z,4.73
2023-05-19T03:18:45.899Z,4.77
2023-05-19T03:19:45.011Z,4.82
2023-05-19T03:20:45.005Z,4.87
2023-05-19T03:21:45.017Z,4.92
2023-05-19T03:22:45.051Z,4.92
2023-05-19T03:23:45.048Z,4.96
2023-05-19T03:24:45.126Z,4.98
2023-05-19T03:25:45.113Z,5.07
2023-05-19T03:26:45.103Z,5.07
2023-05-19T03:27:45.089Z,5.19
2023-05-19T03:28:45.097Z,5.16
2023-05-19T03:29:45.159Z,5.09
2023-05-19T03:30:45.326Z,5.07
2023-05-19T03:31:45.154Z,5.04
2023-05-19T03:32:45.287Z,5.14
2023-05-19T03:33:45.218Z,5.2
2023-05-19T03:34:45.427Z,5.24
2023-05-19T03:35:45.382Z,5.2
2023-05-19T03:36:45.212Z,5.26
2023-05-19T03:37:45.205Z,5.3
2023-05-19T03:38:45.240Z,5.33
2023-05-19T03:39:45.268Z,5.34
2023-05-19T03:40:45.257Z,5.33
2023-05-19T03:41:45.295Z,5.34
2023-05-19T03:42:45.332Z,5.37
2023-05-19T03:43:45.324Z,5.36
2023-05-19T03:44:45.347Z,5.39
2023-05-19T03:45:45.408Z,5.41
2023-05-19T03:46:45.375Z,5.49
2023-05-19T03:47:45.586Z,5.46
2023-05-19T03:48:45.411Z,5.5
2023-05-19T03:49:45.435Z,5.59
2023-05-19T03:50:45.415Z,5.72
2023-05-19T03:51:45.431Z,5.66
2023-05-19T03:52:45.499Z,5.75
2023-05-19T03:53:45.457Z,5.81
2023-05-19T03:54:45.462Z,5.81
2023-05-19T03:55:45.593Z,6.01
2023-05-19T03:56:45.483Z,5.98
2023-05-19T03:57:45.510Z,6.06
2023-05-19T03:58:45.548Z,6.07
2023-05-19T03:59:45.535Z,6
2023-05-19T04:00:45.523Z,6.01
2023-05-19T04:01:45.576Z,5.99
2023-05-19T04:02:45.630Z,6.08
2023-05-19T04:03:45.642Z,6.14
2023-05-19T04:04:45.631Z,6.15
2023-05-19T04:05:45.599Z,6.18
2023-05-19T04:06:45.642Z,6.24
2023-05-19T04:07:45.642Z,6.27
2023-05-19T04:08:45.622Z,6.26
2023-05-19T04:09:45.632Z,6.3
2023-05-19T04:10:45.665Z,6.4
2023-05-19T04:11:45.706Z,6.42
2023-05-19T04:12:45.681Z,6.41
2023-05-19T04:13:45.755Z,6.37
2023-05-19T04:14:45.933Z,6.4
2023-05-19T04:15:45.773Z,6.49
2023-05-19T04:16:45.757Z,6.45
2023-05-19T04:17:45.837Z,6.46
2023-05-19T04:18:45.771Z,6.58
2023-05-19T04:19:45.771Z,6.58
2023-05-19T04:20:45.795Z,6.62
2023-05-19T04:21:45.805Z,6.58
2023-05-19T04:22:45.866Z,6.71
2023-05-19T04:23:45.855Z,6.81
2023-05-19T04:24:45.861Z,6.92
2023-05-19T04:25:45.905Z,6.86
2023-05-19T04:26:46.076Z,7.06
2023-05-19T04:27:45.913Z,7.1
2023-05-19T04:28:45.945Z,6.77
2023-05-19T04:29:45.918Z,6.76
2023-05-19T04:30:45.933Z,6.77
2023-05-19T04:31:46.209Z,6.96
2023-05-19T04:32:46.032Z,6.89
2023-05-19T04:33:45.954Z,6.94
2023-05-19T04:34:45.955Z,6.99
2023-05-19T04:35:45.962Z,7.08
2023-05-19T04:36:46.004Z,7.22
2023-05-19T04:37:46.343Z,7.23
2023-05-19T04:38:46.006Z,7.23
2023-05-19T04:39:46.043Z,7.24
2023-05-19T04:40:46.053Z,7.19
2023-05-19T04:41:46.067Z,7.21
2023-05-19T04:42:46.217Z,7.26
2023-05-19T04:43:46.269Z,7.41
2023-05-19T04:44:46.778Z,7.49
2023-05-19T04:45:46.195Z,7.52
2023-05-19T04:46:46.207Z,7.41
2023-05-19T04:47:46.364Z,7.39
2023-05-19T04:48:46.177Z,7.66
2023-05-19T04:49:46.153Z,7.73
2023-05-19T04:50:46.192Z,7.76
2023-05-19T04:51:46.414Z,7.66
2023-05-19T04:52:46.257Z,7.66
2023-05-19T04:53:46.442Z,7.71
2023-05-19T04:54:46.223Z,7.69
2023-05-19T04:55:46.283Z,7.8
2023-05-19T04:56:46.280Z,7.84
2023-05-19T04:57:46.274Z,7.87
2023-05-19T04:58:46.316Z,7.89
2023-05-19T04:59:46.352Z,8.04
2023-05-19T05:00:46.321Z,8.13
2023-05-19T05:01:46.358Z,8.17
2023-05-19T05:02:46.389Z,8.21
2023-05-19T05:03:46.419Z,8.23
2023-05-19T05:04:46.581Z,8.18
2023-05-19T05:05:46.407Z,8.2
2023-05-19T05:06:46.384Z,8.36
2023-05-19T05:07:46.400Z,8.35
2023-05-19T05:08:46.812Z,8.45
2023-05-19T05:09:46.445Z,8.47
2023-05-19T05:10:46.864Z,8.4
2023-05-19T05:11:47.055Z,8.36
2023-05-19T05:12:47.059Z,8.46
2023-05-19T05:13:47.061Z,8.61
2023-05-19T05:14:47.290Z,8.63
2023-05-19T05:15:47.104Z,8.63
2023-05-19T05:16:47.412Z,8.79
2023-05-19T05:17:47.139Z,8.84
2023-05-19T05:18:46.874Z,8.84
2023-05-19T05:19:47.099Z,8.85
2023-05-19T05:20:46.947Z,8.86
2023-05-19T05:21:47.140Z,8.84
2023-05-19T05:22:47.100Z,9.05
2023-05-19T05:23:47.142Z,9.04
2023-05-19T05:24:47.165Z,9.03
2023-05-19T05:25:47.151Z,9.08
2023-05-19T05:26:47.142Z,9.29
2023-05-19T05:27:46.696Z,9.11
2023-05-19T05:28:46.697Z,8.95
2023-05-19T05:29:46.697Z,9.01
2023-05-19T05:30:46.719Z,9.2
2023-05-19T05:31:46.970Z,9.11
2023-05-19T05:32:47.116Z,9.25
2023-05-19T05:33:46.818Z,9.49
2023-05-19T05:34:46.790Z,9.66
2023-05-19T05:35:46.811Z,9.66
2023-05-19T05:36:46.821Z,9.6
2023-05-19T05:37:46.822Z,9.37
2023-05-19T05:38:46.858Z,9.24
2023-05-19T05:39:46.857Z,9.27
2023-05-19T05:40:47.083Z,9.5
2023-05-19T05:41:46.875Z,9.73
2023-05-19T05:42:46.878Z,9.56
2023-05-19T05:43:46.897Z,9.34
2023-05-19T05:44:46.906Z,9.47
2023-05-19T05:45:46.983Z,9.37
2023-05-19T05:46:47.817Z,9.38
2023-05-19T05:47:47.532Z,9.55
2023-05-19T05:48:47.300Z,9.68
2023-05-19T05:49:47.501Z,9.9
2023-05-19T05:50:48.257Z,9.88
2023-05-19T05:52:01.507Z,9.7
2023-05-19T05:52:53.335Z,9.69
2023-05-19T05:53:53.980Z,9.45
2023-05-19T05:54:52.651Z,9.31
2023-05-19T05:55:52.594Z,9.43
2023-05-19T05:56:53.008Z,9.59
2023-05-19T05:57:52.249Z,9.76
2023-05-19T05:58:52.266Z,9.74
2023-05-19T05:59:52.354Z,9.85
2023-05-19T06:00:52.354Z,9.65
2023-05-19T06:01:52.306Z,9.51
2023-05-19T06:02:52.590Z,9.4
2023-05-19T06:03:52.563Z,9.54
2023-05-19T06:04:52.349Z,9.78
2023-05-19T06:05:52.571Z,9.75
2023-05-19T06:06:52.410Z,9.95
2023-05-19T06:07:52.596Z,10.27
2023-05-19T06:08:52.416Z,10.39
2023-05-19T06:09:52.571Z,10.24
2023-05-19T06:10:52.364Z,9.85
2023-05-19T06:11:52.470Z,9.84
2023-05-19T06:12:52.516Z,9.83
2023-05-19T06:13:52.525Z,10.02
2023-05-19T06:14:52.708Z,10.29
2023-05-19T06:15:52.566Z,10.46
2023-05-19T06:16:52.534Z,10.58
2023-05-19T06:17:52.729Z,10.43
2023-05-19T06:18:52.568Z,10.46
2023-05-19T06:19:52.532Z,10.27
2023-05-19T06:20:52.542Z,10.37
2023-05-19T06:21:52.566Z,10.21
2023-05-19T06:22:52.591Z,10.13
2023-05-19T06:23:52.750Z,10.24
2023-05-19T06:24:52.597Z,10.43
2023-05-19T06:25:52.776Z,10.52
2023-05-19T06:26:52.638Z,10.95
2023-05-19T06:27:52.684Z,10.64
2023-05-19T06:28:52.966Z,10.78
2023-05-19T06:29:52.891Z,10.64
2023-05-19T06:30:52.779Z,10.63
2023-05-19T06:31:52.839Z,10.78
2023-05-19T06:32:52.793Z,10.68
2023-05-19T06:33:52.776Z,10.88
2023-05-19T06:34:52.754Z,10.94
2023-05-19T06:35:52.775Z,10.74
2023-05-19T06:36:52.934Z,10.77
2023-05-19T06:37:52.923Z,10.96
2023-05-19T06:38:52.795Z,10.9
2023-05-19T06:39:53.475Z,10.84
2023-05-19T06:40:52.806Z,11.23
2023-05-19T06:41:53.159Z,11.03
2023-05-19T06:42:52.857Z,10.86
2023-05-19T06:43:53.089Z,10.8
2023-05-19T06:44:53.202Z,10.68
2023-05-19T06:45:53.421Z,10.84
2023-05-19T06:46:53.055Z,11.05
2023-05-19T06:47:52.960Z,10.9
2023-05-19T06:48:52.951Z,10.96
2023-05-19T06:49:53.129Z,11.14
2023-05-19T06:50:53.257Z,11.13
2023-05-19T06:51:52.981Z,11.17
2023-05-19T06:52:53.010Z,11.03
2023-05-19T06:53:53.045Z,11.16
2023-05-19T06:54:53.513Z,10.91
2023-05-19T06:55:59.719Z,10.97
2023-05-19T06:56:57.123Z,10.76
2023-05-19T06:57:57.113Z,10.59
2023-05-19T06:58:57.241Z,10.74
2023-05-19T06:59:57.139Z,10.85
2023-05-19T07:00:57.163Z,11.26
2023-05-19T07:01:57.251Z,11.42
2023-05-19T07:02:57.299Z,11.92
2023-05-19T07:03:57.261Z,11.64
2023-05-19T07:04:57.209Z,11.44
2023-05-19T07:05:59.717Z,11.43
2023-05-19T07:06:57.270Z,11.19
2023-05-19T07:07:57.604Z,11.44
2023-05-19T07:08:57.264Z,11.38
2023-05-19T07:09:57.262Z,11.62
2023-05-19T07:10:57.256Z,11.83
2023-05-19T07:11:57.312Z,11.9
2023-05-19T07:12:57.306Z,11.88
2023-05-19T07:13:57.396Z,11.78
2023-05-19T07:14:57.417Z,12
2023-05-19T07:15:57.434Z,11.69
2023-05-19T07:16:57.816Z,11.71
2023-05-19T07:17:58.190Z,11.63
2023-05-19T07:18:57.487Z,11.76
2023-05-19T07:19:57.454Z,11.68
2023-05-19T07:20:57.939Z,11.49
2023-05-19T07:21:57.424Z,11.4
2023-05-19T07:22:57.513Z,11.54
2023-05-19T07:23:58.818Z,11.97
2023-05-19T07:24:57.577Z,11.87
2023-05-19T07:25:57.835Z,11.36
2023-05-19T07:26:57.671Z,11.58
2023-05-19T07:27:58.123Z,11.93
2023-05-19T07:28:57.635Z,11.69
2023-05-19T07:29:57.916Z,11.63
2023-05-19T07:30:57.556Z,12.14
2023-05-19T07:31:57.626Z,12.19
2023-05-19T07:32:57.671Z,12.38
2023-05-19T07:33:57.630Z,12.31
2023-05-19T07:34:57.597Z,12.23
2023-05-19T07:35:57.750Z,12.51
2023-05-19T07:36:57.878Z,12.31
2023-05-19T07:37:57.646Z,11.84
2023-05-19T07:38:57.687Z,11.82
2023-05-19T07:39:57.988Z,11.57
2023-05-19T07:40:57.782Z,11.66
2023-05-19T07:41:57.795Z,11.48
2023-05-19T07:42:57.789Z,11.51
2023-05-19T07:43:57.730Z,11.59
2023-05-19T07:44:57.706Z,11.99
2023-05-19T07:45:57.744Z,12.25
2023-05-19T07:46:58.003Z,11.78
2023-05-19T07:47:57.908Z,12.22
2023-05-19T07:48:57.971Z,12.74
2023-05-19T07:49:57.828Z,12.73
2023-05-19T07:50:58.086Z,12.56
2023-05-19T07:51:57.813Z,12.5
2023-05-19T07:52:57.930Z,12.59
2023-05-19T07:53:57.921Z,12.64
2023-05-19T07:54:58.638Z,12.41
2023-05-19T07:55:58.621Z,12.65
2023-05-19T07:56:57.931Z,12.69
2023-05-19T07:57:58.102Z,13.01
2023-05-19T07:58:57.980Z,12.55
2023-05-19T07:59:57.942Z,12.33
2023-05-19T08:00:58.621Z,12.4
2023-05-19T08:01:58.558Z,12.65
2023-05-19T08:02:58.132Z,12.74
2023-05-19T08:03:58.509Z,12.83
2023-05-19T08:04:58.131Z,12.85
2023-05-19T08:05:58.143Z,12.79
2023-05-19T08:06:58.076Z,12.55
2023-05-19T08:07:58.076Z,12.65
2023-05-19T08:08:58.275Z,12.09
2023-05-19T08:09:58.094Z,11.84
2023-05-19T08:10:58.105Z,12
2023-05-19T08:11:58.909Z,12.16
2023-05-19T08:12:58.254Z,12.93
2023-05-19T08:13:58.142Z,13.43
2023-05-19T08:15:01.020Z,13.44
2023-05-19T08:15:58.476Z,13.2
2023-05-19T08:16:58.434Z,12.96
2023-05-19T08:17:58.339Z,12.78
2023-05-19T08:18:58.589Z,12.36
2023-05-19T08:19:58.381Z,12.44
2023-05-19T08:20:58.603Z,12.72
2023-05-19T08:21:58.604Z,13.02
2023-05-19T08:22:58.365Z,13.15
2023-05-19T08:23:58.392Z,12.9
2023-05-19T08:24:58.582Z,12.81
2023-05-19T08:25:58.400Z,12.5
2023-05-19T08:26:58.475Z,12.53
2023-05-19T08:27:58.574Z,12.79
2023-05-19T08:28:58.444Z,13.1
2023-05-19T08:29:58.634Z,12.92
2023-05-19T08:30:58.591Z,13.06
2023-05-19T08:31:58.496Z,12.77
2023-05-19T08:32:58.555Z,12.58
2023-05-19T08:33:58.500Z,12.56
2023-05-19T08:34:58.545Z,12.48
2023-05-19T08:35:58.520Z,12.51
2023-05-19T08:36:58.501Z,12.46
2023-05-19T08:37:58.572Z,12.95
2023-05-19T08:38:58.547Z,13.37
2023-05-19T08:39:58.623Z,13.59
2023-05-19T08:40:58.639Z,13.89
2023-05-19T08:41:58.618Z,13.93
2023-05-19T08:42:58.680Z,13.53
2023-05-19T08:43:59.160Z,13
2023-05-19T08:44:59.639Z,13.42
2023-05-19T08:45:59.300Z,13.73
2023-05-19T08:47:00.492Z,13.41
2023-05-19T08:47:58.798Z,12.99
2023-05-19T08:49:00.799Z,13.05
2023-05-19T08:50:03.915Z,13.3
2023-05-19T08:54:11.885Z,13.52
2023-05-19T08:56:14.518Z,12.98
2023-05-19T08:57:12.821Z,12.7
2023-05-19T08:58:12.764Z,13.01
2023-05-19T08:59:13.060Z,13.23
2023-05-19T09:00:12.780Z,13.43
2023-05-19T09:01:14.948Z,13.6
2023-05-19T09:02:12.885Z,13.6
2023-05-19T09:04:15.363Z,13.31
2023-05-19T09:05:15.125Z,13.27
2023-05-19T09:06:14.120Z,13.47
2023-05-19T09:07:14.714Z,13.57
2023-05-19T09:08:14.045Z,14.48
2023-05-19T09:09:14.139Z,14.09
2023-05-19T09:10:14.570Z,13.7
2023-05-19T09:11:14.082Z,13.87
2023-05-19T09:12:14.401Z,13.74
2023-05-19T09:13:14.116Z,13.51
2023-05-19T09:14:14.155Z,14.14
2023-05-19T09:15:17.985Z,13.8
2023-05-19T09:16:14.720Z,13.54
2023-05-19T09:17:14.734Z,13.67
2023-05-19T09:18:14.726Z,13.72
2023-05-19T09:19:14.811Z,14.17
2023-05-19T09:20:16.388Z,14.4
2023-05-19T09:21:14.801Z,13.99
2023-05-19T09:22:15.816Z,13.87
2023-05-19T09:23:15.392Z,14.42
2023-05-19T09:24:15.169Z,14.45
2023-05-19T09:25:22.368Z,14.67
2023-05-19T09:26:19.029Z,14.85
2023-05-19T09:27:21.977Z,15.18
2023-05-19T09:28:28.656Z,14.7
2023-05-19T09:29:20.369Z,13.89
2023-05-19T09:30:20.649Z,14.19
2023-05-19T09:31:20.392Z,14.28
2023-05-19T09:32:26.353Z,14.32
2023-05-19T09:33:23.139Z,13.93
2023-05-19T09:34:23.140Z,14.19
2023-05-19T09:35:23.675Z,14.18
2023-05-19T09:36:23.206Z,13.94
2023-05-19T09:37:23.765Z,13.88
2023-05-19T09:38:26.707Z,14.31
2023-05-19T09:39:23.573Z,14.41
2023-05-19T09:40:27.613Z,14.85
2023-05-19T09:41:24.306Z,14.54
2023-05-19T09:42:25.114Z,14.91
2023-05-19T09:43:24.499Z,15.23
2023-05-19T09:44:25.573Z,14.55
2023-05-19T09:45:26.774Z,13.93
2023-05-19T09:46:26.043Z,14.48
2023-05-19T09:47:24.570Z,14.4
2023-05-19T09:48:26.018Z,13.99
2023-05-19T09:49:25.933Z,14.33
2023-05-19T09:50:24.748Z,14.58
2023-05-19T09:51:24.498Z,14.7
2023-05-19T09:52:25.220Z,14.7
2023-05-19T09:53:24.879Z,14.42
2023-05-19T09:54:25.026Z,14.84
2023-05-19T09:55:28.844Z,14.54
2023-05-19T09:56:31.285Z,14.72
2023-05-19T09:57:33.147Z,14.37
2023-05-19T09:58:33.558Z,14.62
2023-05-19T09:59:32.904Z,14.5
2023-05-19T10:00:32.161Z,13.9
2023-05-19T10:01:32.123Z,14.05
2023-05-19T10:02:31.429Z,14.1
2023-05-19T10:03:31.208Z,15.18
2023-05-19T10:04:31.309Z,15.11
2023-05-19T10:05:31.330Z,14.67
2023-05-19T10:06:30.850Z,14.89
2023-05-19T10:07:30.836Z,14.82
2023-05-19T10:08:31.084Z,14.67
2023-05-19T10:09:30.722Z,14.89
2023-05-19T10:10:30.624Z,14.64
2023-05-19T10:11:30.785Z,14.98
2023-05-19T10:12:31.477Z,14.68
2023-05-19T10:13:30.569Z,15.06
2023-05-19T10:14:30.816Z,14.61
2023-05-19T10:15:30.937Z,14.46
2023-05-19T10:16:31.656Z,14.08
2023-05-19T10:17:31.290Z,14.35
2023-05-19T10:18:32.529Z,14.51
2023-05-19T10:19:30.934Z,15.08
2023-05-19T10:20:31.392Z,14.53
2023-05-19T10:21:30.672Z,14.53
2023-05-19T10:22:30.692Z,14.56
2023-05-19T10:23:30.709Z,14.99
2023-05-19T10:24:30.938Z,15.54
2023-05-19T10:25:32.309Z,15.22
2023-05-19T10:26:30.930Z,15.35
2023-05-19T10:27:31.786Z,15.03
2023-05-19T10:28:36.689Z,15
2023-05-19T10:29:36.320Z,14.93
2023-05-19T10:30:35.936Z,15.1
2023-05-19T10:31:34.124Z,15.48
2023-05-19T10:32:33.949Z,14.9
2023-05-19T10:33:41.504Z,14.88
2023-05-19T10:36:49.565Z,14.58
2023-05-19T10:38:56.554Z,15.71
2023-05-19T10:39:53.253Z,15.95
2023-05-19T10:42:10.530Z,16.04
2023-05-19T10:43:02.211Z,15.71
2023-05-19T10:44:09.184Z,15.47
2023-05-19T10:46:05.563Z,14.94
2023-05-19T10:47:07.891Z,15.22
2023-05-19T10:48:05.333Z,15.13
2023-05-19T10:49:07.280Z,15.26
2023-05-19T10:50:05.664Z,15
2023-05-19T10:51:08.402Z,14.98
2023-05-19T10:52:18.747Z,14.82
2023-05-19T10:53:15.597Z,14.9
2023-05-19T10:54:12.180Z,14.88
2023-05-19T10:55:12.822Z,15.26
2023-05-19T10:56:09.828Z,15.56
2023-05-19T10:57:14.142Z,15.09
2023-05-19T10:58:11.413Z,15.63
2023-05-19T11:01:14.204Z,16
2023-05-19T11:03:18.928Z,15.41
2023-05-19T11:04:18.815Z,15.55
2023-05-19T11:05:19.252Z,15.11
2023-05-19T11:06:28.663Z,15.02
2023-05-19T11:07:21.306Z,15.14
2023-05-19T11:08:31.856Z,15.32
2023-05-19T11:09:34.227Z,15.3
2023-05-19T11:10:26.497Z,15.52
2023-05-19T11:11:27.052Z,15.62
2023-05-19T11:12:26.591Z,16.14
2023-05-19T11:13:28.415Z,16.15
2023-05-19T11:14:26.897Z,15.59
2023-05-19T11:15:27.716Z,15.62
2023-05-19T11:16:31.985Z,15.59
2023-05-19T11:17:28.982Z,15.79
2023-05-19T11:18:31.173Z,16.21
2023-05-19T11:19:34.280Z,16.08
2023-05-19T11:20:31.440Z,15.63
2023-05-19T11:22:33.980Z,15.81
2023-05-19T11:24:38.497Z,16.17
2023-05-19T11:26:40.282Z,15.78
2023-05-19T11:27:37.051Z,15.52
2023-05-19T11:28:37.343Z,15.68
2023-05-19T11:29:37.534Z,16.14
2023-05-19T11:30:37.719Z,16.52
2023-05-19T11:31:37.587Z,16.95
2023-05-19T11:32:37.190Z,16.8
2023-05-19T11:33:37.609Z,16.52
2023-05-19T11:34:37.768Z,16.46
2023-05-19T11:35:37.566Z,16.87
2023-05-19T11:36:38.735Z,16.61
2023-05-19T11:37:37.246Z,16.45
2023-05-19T11:38:37.669Z,16.51
2023-05-19T11:39:37.286Z,16.44
2023-05-19T11:40:37.494Z,16.79
2023-05-19T11:41:40.033Z,16.8
2023-05-19T11:42:37.854Z,16.89
2023-05-19T11:43:37.899Z,16.84
2023-05-19T11:44:37.887Z,16.53
2023-05-19T11:45:38.129Z,16.85
2023-05-19T11:46:37.948Z,16.48
2023-05-19T11:47:50.879Z,17.22
2023-05-19T11:48:39.527Z,17.47
2023-05-19T11:49:42.665Z,17.49
2023-05-19T11:50:42.604Z,16.99
2023-05-19T11:51:39.364Z,17.24
2023-05-19T11:53:40.524Z,16.81
2023-05-19T11:54:40.676Z,16.85
2023-05-19T11:56:43.940Z,16.15
2023-05-19T11:58:48.907Z,16.24
2023-05-19T11:59:48.928Z,16.17
2023-05-19T12:00:49.303Z,16.22
2023-05-19T12:01:48.974Z,16.58
2023-05-19T12:02:49.134Z,16.07
2023-05-19T12:03:49.214Z,16.22
2023-05-19T12:04:49.120Z,16.29
2023-05-19T12:05:49.542Z,16.37
2023-05-19T12:06:49.234Z,16.84
2023-05-19T12:07:49.369Z,17.08
2023-05-19T12:08:51.095Z,17.33
2023-05-19T12:09:49.677Z,17.49
2023-05-19T12:10:49.288Z,16.98
2023-05-19T12:11:49.473Z,16.63
2023-05-19T12:12:50.525Z,17.1
2023-05-19T12:13:49.599Z,16.72
2023-05-19T12:14:52.524Z,16.85
2023-05-19T12:15:50.838Z,16.64
2023-05-19T12:16:49.575Z,16.87
2023-05-19T12:17:50.106Z,17.01
2023-05-19T12:18:49.526Z,16.62
2023-05-19T12:19:49.948Z,17.03
2023-05-19T12:20:49.560Z,17.06
2023-05-19T12:21:49.762Z,17.07
2023-05-19T12:22:50.798Z,16.87
2023-05-19T12:23:49.755Z,17.38
2023-05-19T12:24:50.402Z,17.09
2023-05-19T12:25:50.061Z,16.97
2023-05-19T12:26:49.843Z,16.89
2023-05-19T12:27:49.887Z,17.18
2023-05-19T12:28:49.866Z,17.07
2023-05-19T12:29:50.603Z,17.38
2023-05-19T12:30:50.750Z,17.61
2023-05-19T12:31:49.828Z,17.6
2023-05-19T12:32:49.793Z,17.31
2023-05-19T12:33:49.942Z,17.11
2023-05-19T12:34:49.996Z,17.49
2023-05-19T12:35:50.682Z,17.23
2023-05-19T12:36:49.825Z,17.15
2023-05-19T12:37:49.842Z,17.86
2023-05-19T12:38:53.558Z,17.74
2023-05-19T12:39:50.747Z,17.73
2023-05-19T12:40:50.506Z,17.72
2023-05-19T12:41:50.287Z,17.98
2023-05-19T12:42:50.465Z,17.34
2023-05-19T12:43:50.499Z,18.03
2023-05-19T12:44:51.347Z,17.56
2023-05-19T12:45:50.382Z,17.46
2023-05-19T12:46:52.054Z,17.73
2023-05-19T12:47:50.592Z,17.63
2023-05-19T12:48:50.436Z,17.5
2023-05-19T12:50:00.369Z,17.48
2023-05-19T12:50:52.626Z,18.01
2023-05-19T12:51:53.069Z,17.02
2023-05-19T12:52:52.973Z,17.75
2023-05-19T12:53:52.191Z,17.98
2023-05-19T12:55:02.024Z,18.2
2023-05-19T12:55:53.834Z,18.14
2023-05-19T12:56:53.904Z,17.56
2023-05-19T12:57:53.981Z,18.09
2023-05-19T12:58:54.627Z,17.82
2023-05-19T12:59:59.673Z,18.24
2023-05-19T13:00:58.591Z,18.11
2023-05-19T13:01:59.365Z,18.14
2023-05-19T13:04:02.162Z,17.42
2023-05-19T13:05:01.030Z,17.56
2023-05-19T13:06:00.998Z,17.91
2023-05-19T13:07:01.123Z,17.36
2023-05-19T13:08:02.291Z,17.48
2023-05-19T13:09:01.058Z,17.85
2023-05-19T13:10:01.254Z,17.85
2023-05-19T13:11:01.457Z,17.58
2023-05-19T13:12:01.124Z,17.24
2023-05-19T13:13:01.494Z,17.39
2023-05-19T13:14:01.191Z,17.73
2023-05-19T13:15:01.259Z,17.82
2023-05-19T13:16:01.331Z,17.93
2023-05-19T13:17:01.452Z,18.31
2023-05-19T13:18:01.901Z,18
2023-05-19T13:19:01.622Z,17.58
2023-05-19T13:20:01.300Z,18.36
2023-05-19T13:21:01.253Z,18.06
2023-05-19T13:22:01.329Z,17.94
2023-05-19T13:23:01.655Z,17.78
2023-05-19T13:24:01.302Z,17.75
2023-05-19T13:25:01.264Z,17.67
2023-05-19T13:26:01.406Z,18.14
2023-05-19T13:27:01.386Z,17.83
2023-05-19T13:28:01.778Z,17.69
2023-05-19T13:29:01.586Z,17.72
2023-05-19T13:30:01.586Z,17.88
2023-05-19T13:31:01.442Z,17.4
2023-05-19T13:32:01.724Z,17.42
2023-05-19T13:33:02.185Z,17.8
2023-05-19T13:34:02.135Z,17.47
2023-05-19T13:35:01.524Z,17.44
2023-05-19T13:36:01.513Z,17.66
2023-05-19T13:37:01.539Z,17.76
2023-05-19T13:38:01.532Z,17.79
2023-05-19T13:39:01.530Z,18.26
2023-05-19T13:40:01.804Z,17.45
2023-05-19T13:41:01.705Z,17.26
2023-05-19T13:42:01.628Z,17.63
2023-05-19T13:43:02.625Z,17.72
2023-05-19T13:44:02.138Z,17.67
2023-05-19T13:45:02.107Z,17.58
2023-05-19T13:46:01.721Z,17.84
2023-05-19T13:47:01.722Z,17.79
2023-05-19T13:48:02.241Z,17.25
2023-05-19T13:49:01.710Z,17.4
2023-05-19T13:50:02.846Z,17.72
2023-05-19T13:51:01.848Z,17.77